createdAt,value
2023-03-06T00:01:48.797Z,100389.78
2023-03-06T00:04:34.834Z,100382.03
2023-03-06T00:07:20.623Z,100382.16
2023-03-06T00:10:08.093Z,100374.28
2023-03-06T00:12:54.024Z,100369.88
2023-03-06T00:15:39.872Z,100371.78
2023-03-06T00:18:25.653Z,100371.78
2023-03-06T00:21:11.586Z,100363.41
2023-03-06T00:23:57.237Z,100375.78
2023-03-06T00:26:44.209Z,100374.94
2023-03-06T00:29:30.087Z,100372.63
2023-03-06T00:32:15.912Z,100370.13
2023-03-06T00:35:01.652Z,100368.56
2023-03-06T00:37:47.429Z,100372.97
2023-03-06T00:40:33.163Z,100381.66
2023-03-06T00:43:20.625Z,100381.66
2023-03-06T00:46:06.776Z,100382.00
2023-03-06T00:48:52.915Z,100382.84
2023-03-06T00:51:40.302Z,100389.75
2023-03-06T00:54:26.746Z,100381.88
2023-03-06T00:57:12.397Z,100384.72
2023-03-06T00:59:59.533Z,100382.22
2023-03-06T01:02:45.385Z,100377.81
2023-03-06T01:05:31.168Z,100378.03
2023-03-06T01:08:18.510Z,100384.00
2023-03-06T01:11:04.466Z,100379.69
2023-03-06T01:13:50.299Z,100385.06
2023-03-06T01:16:37.391Z,100386.84
2023-03-06T01:19:23.402Z,100375.59
2023-03-06T01:22:09.207Z,100380.84
2023-03-06T01:24:55.160Z,100379.09
2023-03-06T01:27:40.890Z,100380.00
2023-03-06T01:30:29.926Z,100382.53
2023-03-06T01:33:17.139Z,100382.53
2023-03-06T01:36:04.659Z,100384.41
2023-03-06T01:38:50.375Z,100380.84
2023-03-06T01:41:36.167Z,100377.47
2023-03-06T01:44:21.819Z,100381.78
2023-03-06T01:47:07.594Z,100376.66
2023-03-06T01:49:54.713Z,100373.06
2023-03-06T01:52:40.928Z,100374.88
2023-03-06T01:55:27.289Z,100377.47
2023-03-06T01:58:14.345Z,100365.22
2023-03-06T02:01:00.642Z,100372.25
2023-03-06T02:03:47.290Z,100360.91
2023-03-06T02:06:34.640Z,100362.81
2023-03-06T02:09:22.404Z,100363.13
2023-03-06T02:12:09.984Z,100365.75
2023-03-06T02:14:55.789Z,100363.13
2023-03-06T02:17:41.792Z,100358.22
2023-03-06T02:20:30.145Z,100364.09
2023-03-06T02:23:19.174Z,100359.06
2023-03-06T02:26:06.626Z,100362.63
2023-03-06T02:28:52.794Z,100365.25
2023-03-06T02:31:38.738Z,100358.22
2023-03-06T02:34:43.876Z,100362.41
2023-03-06T02:37:30.357Z,100359.28
2023-03-06T02:40:18.865Z,100360.41
2023-03-06T02:43:06.180Z,100359.56
2023-03-06T02:45:52.664Z,100360.53
2023-03-06T02:48:38.879Z,100358.22
2023-03-06T02:51:25.236Z,100369.31
2023-03-06T02:54:11.773Z,100361.56
2023-03-06T02:56:57.821Z,100355.59
2023-03-06T02:59:45.826Z,100361.78
2023-03-06T03:02:31.674Z,100350.25
2023-03-06T03:05:17.414Z,100358.22
2023-03-06T03:08:06.734Z,100366.09
2023-03-06T03:10:53.250Z,100351.19
2023-03-06T03:13:40.725Z,100355.72
2023-03-06T03:16:31.692Z,100358.84
2023-03-06T03:19:18.482Z,100358.00
2023-03-06T03:22:05.217Z,100357.19
2023-03-06T03:24:51.021Z,100350.25
2023-03-06T03:27:37.477Z,100362.41
2023-03-06T03:30:24.312Z,100350.03
2023-03-06T03:33:11.733Z,100347.53
2023-03-06T03:35:58.743Z,100349.41
2023-03-06T03:38:45.939Z,100341.56
2023-03-06T03:41:31.615Z,100345.84
2023-03-06T03:44:17.281Z,100338.94
2023-03-06T03:47:04.297Z,100338.94
2023-03-06T03:49:51.720Z,100335.47
2023-03-06T03:52:39.451Z,100332.84
2023-03-06T03:55:25.778Z,100331.06
2023-03-06T03:58:12.052Z,100329.50
2023-03-06T04:00:57.733Z,100329.41
2023-03-06T04:03:43.604Z,100332.84
2023-03-06T04:06:32.135Z,100327.00
2023-03-06T04:09:18.384Z,100326.78
2023-03-06T04:12:04.810Z,100322.38
2023-03-06T04:14:51.655Z,100327.84
2023-03-06T04:17:38.040Z,100314.72
2023-03-06T04:20:28.295Z,100316.94
2023-03-06T04:23:17.014Z,100316.72
2023-03-06T04:26:03.852Z,100316.63
2023-03-06T04:28:49.838Z,100321.13
2023-03-06T04:31:35.719Z,100321.03
2023-03-06T04:34:22.007Z,100318.50
2023-03-06T04:37:08.939Z,100322.19
2023-03-06T04:39:56.437Z,100330.06
2023-03-06T04:42:42.194Z,100326.66
2023-03-06T04:45:28.515Z,100333.69
2023-03-06T04:48:14.578Z,100332.13
2023-03-06T04:51:00.507Z,100331.19
2023-03-06T04:53:46.852Z,100327.63
2023-03-06T04:56:34.458Z,100342.50
2023-03-06T04:59:20.202Z,100345.00
2023-03-06T05:02:06.161Z,100347.63
2023-03-06T05:04:51.825Z,100353.81
2023-03-06T05:07:37.555Z,100358.44
2023-03-06T05:10:23.588Z,100362.63
2023-03-06T05:13:10.887Z,100375.50
2023-03-06T05:15:56.688Z,100378.25
2023-03-06T05:18:42.323Z,100385.16
2023-03-06T05:21:28.196Z,100388.81
2023-03-06T05:24:14.380Z,100400.03
2023-03-06T05:27:00.088Z,100413.25
2023-03-06T05:29:47.632Z,100413.13
2023-03-06T05:32:35.527Z,100417.66
2023-03-06T05:35:22.950Z,100422.88
2023-03-06T05:38:09.459Z,100428.84
2023-03-06T05:40:55.481Z,100435.34
2023-03-06T05:43:41.177Z,100442.91
2023-03-06T05:46:28.247Z,100450.66
2023-03-06T05:49:14.032Z,100455.28
2023-03-06T05:51:59.778Z,100465.66
2023-03-06T05:54:45.779Z,100470.78
2023-03-06T05:57:31.698Z,100479.41
2023-03-06T06:00:17.930Z,100476.78
2023-03-06T06:03:05.387Z,100488.00
2023-03-06T06:05:51.143Z,100478.47
2023-03-06T06:08:36.951Z,100488.94
2023-03-06T06:11:22.835Z,100493.41
2023-03-06T06:14:08.636Z,100506.53
2023-03-06T06:16:54.584Z,100508.97
2023-03-06T06:19:41.923Z,100515.78
2023-03-06T06:22:27.829Z,100523.00
2023-03-06T06:25:13.743Z,100526.66
2023-03-06T06:27:59.612Z,100543.13
2023-03-06T06:30:45.355Z,100546.50
2023-03-06T06:33:31.948Z,100549.84
2023-03-06T06:36:20.101Z,100562.84
2023-03-06T06:39:06.522Z,100563.47
2023-03-06T06:42:09.729Z,100574.81
2023-03-06T06:44:59.142Z,100575.44
2023-03-06T06:47:46.076Z,100583.19
2023-03-06T06:50:31.985Z,100577.78
2023-03-06T06:53:19.084Z,100585.63
2023-03-06T06:56:04.904Z,100589.00
2023-03-06T06:58:52.272Z,100594.78
2023-03-06T07:01:38.012Z,100601.69
2023-03-06T07:04:23.704Z,100604.09
2023-03-06T07:07:09.423Z,100608.41
2023-03-06T07:09:56.888Z,100610.09
2023-03-06T07:12:42.724Z,100620.47
2023-03-06T07:15:30.676Z,100622.03
2023-03-06T07:18:16.885Z,100629.91
2023-03-06T07:21:02.762Z,100630.84
2023-03-06T07:23:48.585Z,100637.03
2023-03-06T07:26:35.592Z,100636.09
2023-03-06T07:29:21.358Z,100633.69
2023-03-06T07:32:07.745Z,100641.81
2023-03-06T07:35:02.739Z,100641.44
2023-03-06T07:37:58.914Z,100638.91
2023-03-06T07:40:44.650Z,100636.19
2023-03-06T07:43:31.787Z,100638.06
2023-03-06T07:46:21.219Z,100637.50
2023-03-06T07:49:06.931Z,100636.56
2023-03-06T07:51:52.572Z,100630.56
2023-03-06T07:54:38.250Z,100630.97
2023-03-06T07:57:24.263Z,100626.78
2023-03-06T08:00:13.454Z,100627.63
2023-03-06T08:02:59.346Z,100631.19
2023-03-06T08:05:45.198Z,100632.97
2023-03-06T08:08:30.947Z,100641.66
2023-03-06T08:11:17.087Z,100638.47
2023-03-06T08:14:03.175Z,100638.47
2023-03-06T08:16:51.136Z,100638.03
2023-03-06T08:19:36.939Z,100647.88
2023-03-06T08:22:23.598Z,100649.03
2023-03-06T08:25:10.057Z,100653.31
2023-03-06T08:27:56.038Z,100654.81
2023-03-06T08:30:42.535Z,100659.88
2023-03-06T08:33:29.779Z,100666.78
2023-03-06T08:36:15.621Z,100662.50
2023-03-06T08:39:01.644Z,100667.19
2023-03-06T08:41:47.626Z,100673.16
2023-03-06T08:44:34.296Z,100672.63
2023-03-06T08:47:21.334Z,100671.13
2023-03-06T08:50:08.621Z,100683.38
2023-03-06T08:52:54.436Z,100677.47
2023-03-06T08:55:40.230Z,100673.66
2023-03-06T08:58:26.168Z,100675.13
2023-03-06T09:01:13.885Z,100673.75
2023-03-06T09:04:00.649Z,100687.50
2023-03-06T09:06:47.607Z,100689.28
2023-03-06T09:09:33.401Z,100689.38
2023-03-06T09:12:19.121Z,100689.47
2023-03-06T09:15:05.260Z,100695.72
2023-03-06T09:17:51.612Z,100702.75
2023-03-06T09:20:37.643Z,100709.66
2023-03-06T09:23:25.069Z,100711.34
2023-03-06T09:26:12.094Z,100720.13
2023-03-06T09:28:58.027Z,100719.19
2023-03-06T09:31:43.880Z,100730.53
2023-03-06T09:34:29.916Z,100736.69
2023-03-06T09:37:16.372Z,100732.47
2023-03-06T09:40:06.237Z,100745.47
2023-03-06T09:42:52.197Z,100748.09
2023-03-06T09:45:38.036Z,100746.22
2023-03-06T09:48:24.033Z,100757.34
2023-03-06T09:51:11.255Z,100755.28
2023-03-06T09:53:58.942Z,100750.59
2023-03-06T09:56:47.327Z,100747.03
2023-03-06T09:59:33.411Z,100742.84
2023-03-06T10:02:21.368Z,100749.47
2023-03-06T10:05:09.613Z,100753.50
2023-03-06T10:07:56.651Z,100747.25
2023-03-06T10:10:43.543Z,100747.81
2023-03-06T10:13:31.779Z,100752.66
2023-03-06T10:16:20.984Z,100753.31
2023-03-06T10:19:11.245Z,100745.94
2023-03-06T10:21:58.516Z,100755.31
2023-03-06T10:24:47.065Z,100760.88
2023-03-06T10:27:35.625Z,100764.03
2023-03-06T10:30:33.307Z,100752.16
2023-03-06T10:33:23.014Z,100727.81
2023-03-06T10:36:09.537Z,100718.00
2023-03-06T10:38:56.203Z,100722.53
2023-03-06T10:41:42.537Z,100719.00
2023-03-06T10:44:28.856Z,100697.13
2023-03-06T10:47:28.654Z,100675.69
2023-03-06T10:50:20.254Z,100640.06
2023-03-06T10:53:07.075Z,100615.88
2023-03-06T10:55:57.040Z,100577.34
2023-03-06T10:58:43.063Z,100547.78
2023-03-06T11:01:29.451Z,100506.47
2023-03-06T11:04:18.194Z,100471.00
2023-03-06T11:07:08.949Z,100425.13
2023-03-06T11:10:06.277Z,100390.47
2023-03-06T11:12:59.687Z,100344.84
2023-03-06T11:15:49.693Z,100318.69
2023-03-06T11:18:37.684Z,100294.19
2023-03-06T11:21:31.865Z,100271.84
2023-03-06T11:24:18.252Z,100256.19
2023-03-06T11:27:05.820Z,100222.59
2023-03-06T11:29:52.155Z,100202.28
2023-03-06T11:32:39.990Z,100189.72
2023-03-06T11:35:26.289Z,100173.84
2023-03-06T11:38:14.500Z,100142.03
2023-03-06T11:41:00.516Z,100124.09
2023-03-06T11:43:49.491Z,100106.78
2023-03-06T11:46:35.727Z,100081.19
2023-03-06T11:49:23.254Z,100068.44
2023-03-06T11:52:12.650Z,100070.91
2023-03-06T11:54:59.630Z,100067.59
2023-03-06T11:57:47.700Z,100049.13
2023-03-06T12:00:34.836Z,100042.50
2023-03-06T12:03:38.456Z,100010.72
2023-03-06T12:06:27.577Z,99972.63
2023-03-06T12:09:31.996Z,99943.44
2023-03-06T12:12:22.602Z,99906.06
2023-03-06T12:15:13.311Z,99892.59
2023-03-06T12:18:01.110Z,99872.81
2023-03-06T12:20:53.203Z,99848.16
2023-03-06T12:23:43.304Z,99824.44
2023-03-06T12:26:39.182Z,99808.75
2023-03-06T12:29:29.407Z,99778.28
2023-03-06T12:32:17.642Z,99770.19
2023-03-06T12:35:16.647Z,99763.53
2023-03-06T12:38:06.155Z,99747.88
2023-03-06T12:40:58.629Z,99725.28
2023-03-06T12:43:54.350Z,99721.31
2023-03-06T12:46:42.656Z,99714.16
2023-03-06T12:49:32.854Z,99704.38
2023-03-06T12:52:21.584Z,99693.53
2023-03-06T12:55:14.094Z,99686.34
2023-03-06T12:58:01.345Z,99680.41
2023-03-06T13:01:03.554Z,99674.56
2023-03-06T13:03:57.208Z,99665.50
2023-03-06T13:06:54.144Z,99663.88
2023-03-06T13:09:41.103Z,99665.53
2023-03-06T13:12:28.993Z,99670.19
2023-03-06T13:15:28.660Z,99675.16
2023-03-06T13:18:36.022Z,99680.03
2023-03-06T13:21:41.191Z,99676.94
2023-03-06T13:24:28.832Z,99672.38
2023-03-06T13:27:15.151Z,99677.03
2023-03-06T13:30:09.623Z,99669.13
2023-03-06T13:32:56.061Z,99676.69
2023-03-06T13:35:49.280Z,99674.97
2023-03-06T13:38:53.383Z,99676.41
2023-03-06T13:41:57.194Z,99677.13
2023-03-06T13:44:43.804Z,99662.94
2023-03-06T13:47:39.174Z,99656.97
2023-03-06T13:50:38.660Z,99672.66
2023-03-06T13:53:38.406Z,99682.81
2023-03-06T13:56:28.004Z,99687.94
2023-03-06T13:59:19.917Z,99699.66
2023-03-06T14:02:10.282Z,99712.66
2023-03-06T14:04:56.097Z,99704.81
2023-03-06T14:07:42.504Z,99695.50
2023-03-06T14:10:28.296Z,99732.59
2023-03-06T14:13:15.339Z,99743.56
2023-03-06T14:16:02.767Z,99727.09
2023-03-06T14:18:50.149Z,99691.44
2023-03-06T14:21:37.978Z,99690.66
2023-03-06T14:24:28.053Z,99679.94
2023-03-06T14:27:17.854Z,99677.41
2023-03-06T14:30:08.473Z,99672.94
2023-03-06T14:32:56.193Z,99676.03
2023-03-06T14:35:41.940Z,99672.59
2023-03-06T14:38:27.913Z,99683.47
2023-03-06T14:41:14.317Z,99686.53
2023-03-06T14:44:10.302Z,99679.75
2023-03-06T14:46:56.897Z,99677.78
2023-03-06T14:49:44.307Z,99672.00
2023-03-06T14:52:37.006Z,99666.34
2023-03-06T14:55:23.580Z,99664.56
2023-03-06T14:58:11.501Z,99671.63
2023-03-06T15:00:58.605Z,99665.28
2023-03-06T15:03:45.441Z,99666.97
2023-03-06T15:06:34.333Z,99661.03
2023-03-06T15:09:21.327Z,99682.16
2023-03-06T15:12:08.686Z,99669.25
2023-03-06T15:14:57.304Z,99663.88
2023-03-06T15:17:44.095Z,99651.53
2023-03-06T15:20:41.156Z,99651.28
2023-03-06T15:23:35.570Z,99663.53
2023-03-06T15:26:23.465Z,99657.44
2023-03-06T15:29:19.461Z,99651.47
2023-03-06T15:32:15.264Z,99660.22
2023-03-06T15:35:20.044Z,99654.56
2023-03-06T15:38:21.584Z,99657.47
2023-03-06T15:41:20.897Z,99654.44
2023-03-06T15:44:09.646Z,99643.88
2023-03-06T15:47:07.739Z,99646.50
2023-03-06T15:49:54.880Z,99641.78
2023-03-06T15:52:40.739Z,99639.44
2023-03-06T15:55:26.703Z,99640.84
2023-03-06T15:58:14.343Z,99643.84
2023-03-06T16:01:00.531Z,99639.84
2023-03-06T16:03:46.407Z,99638.59
2023-03-06T16:06:32.053Z,99630.16
2023-03-06T16:09:17.790Z,99630.53
2023-03-06T16:12:03.968Z,99622.78
2023-03-06T16:14:51.306Z,99624.16
2023-03-06T16:17:37.138Z,99616.44
2023-03-06T16:20:23.525Z,99616.16
2023-03-06T16:23:10.880Z,99608.50
2023-03-06T16:25:57.038Z,99608.50
2023-03-06T16:28:43.047Z,99610.56
2023-03-06T16:31:30.148Z,99596.06
2023-03-06T16:34:15.926Z,99593.56
2023-03-06T16:37:01.651Z,99593.00
2023-03-06T16:39:47.340Z,99586.25
2023-03-06T16:42:33.732Z,99587.56
2023-03-06T16:45:20.112Z,99579.28
2023-03-06T16:48:07.757Z,99579.56
2023-03-06T16:50:53.448Z,99579.13
2023-03-06T16:53:39.097Z,99569.00
2023-03-06T16:56:24.894Z,99599.38
2023-03-06T16:59:10.958Z,99601.69
2023-03-06T17:01:56.868Z,99599.59
2023-03-06T17:04:43.964Z,99606.09
2023-03-06T17:07:29.928Z,99630.47
2023-03-06T17:10:16.372Z,99634.59
2023-03-06T17:13:02.210Z,99634.28
2023-03-06T17:15:56.046Z,99633.38
2023-03-06T17:18:42.448Z,99641.63
2023-03-06T17:21:30.263Z,99635.47
2023-03-06T17:24:16.311Z,99638.88
2023-03-06T17:27:02.008Z,99636.72
2023-03-06T17:29:47.848Z,99656.56
2023-03-06T17:32:34.023Z,99659.00
2023-03-06T17:35:20.059Z,99663.75
2023-03-06T17:38:07.833Z,99667.00
2023-03-06T17:40:53.877Z,99669.50
2023-03-06T17:43:39.846Z,99673.00
2023-03-06T17:46:26.097Z,99664.31
2023-03-06T17:49:12.285Z,99668.84
2023-03-06T17:51:59.676Z,99676.72
2023-03-06T17:54:46.768Z,99676.13
2023-03-06T17:57:33.383Z,99672.94
2023-03-06T18:00:20.146Z,99680.41
2023-03-06T18:03:06.278Z,99679.59
2023-03-06T18:05:58.951Z,99693.28
2023-03-06T18:08:45.673Z,99691.00
2023-03-06T18:11:32.751Z,99683.28
2023-03-06T18:14:18.684Z,99684.59
2023-03-06T18:17:04.497Z,99686.50
2023-03-06T18:19:50.274Z,99681.50
2023-03-06T18:22:36.024Z,99679.84
2023-03-06T18:25:22.226Z,99694.84
2023-03-06T18:28:09.363Z,99686.16
2023-03-06T18:30:55.189Z,99689.81
2023-03-06T18:33:40.909Z,99691.72
2023-03-06T18:36:27.513Z,99695.41
2023-03-06T18:39:14.286Z,99688.63
2023-03-06T18:41:59.989Z,99684.34
2023-03-06T18:44:48.535Z,99687.22
2023-03-06T18:47:34.437Z,99686.25
2023-03-06T18:50:20.279Z,99680.19
2023-03-06T18:53:06.048Z,99686.25
2023-03-06T18:55:53.478Z,99678.41
2023-03-06T18:58:39.573Z,99685.66
2023-03-06T19:01:30.601Z,99675.53
2023-03-06T19:04:16.611Z,99681.34
2023-03-06T19:07:02.422Z,99683.50
2023-03-06T19:09:48.918Z,99686.94
2023-03-06T19:12:35.538Z,99693.13
2023-03-06T19:15:21.318Z,99694.06
2023-03-06T19:18:08.332Z,99696.56
2023-03-06T19:20:54.340Z,99699.19
2023-03-06T19:23:40.416Z,99695.97
2023-03-06T19:26:26.886Z,99691.47
2023-03-06T19:29:13.108Z,99703.00
2023-03-06T19:31:59.000Z,99697.75
2023-03-06T19:34:46.534Z,99705.94
2023-03-06T19:37:33.013Z,99698.81
2023-03-06T19:40:19.125Z,99702.38
2023-03-06T19:43:04.887Z,99704.03
2023-03-06T19:45:50.818Z,99711.75
2023-03-06T19:48:36.569Z,99709.97
2023-03-06T19:51:24.107Z,99709.16
2023-03-06T19:54:10.412Z,99711.88
2023-03-06T19:56:56.331Z,99699.50
2023-03-06T19:59:43.026Z,99709.06
2023-03-06T20:02:29.030Z,99706.22
2023-03-06T20:05:14.929Z,99700.25
2023-03-06T20:08:02.118Z,99704.66
2023-03-06T20:10:47.928Z,99703.09
2023-03-06T20:13:34.013Z,99709.25
2023-03-06T20:16:19.835Z,99700.69
2023-03-06T20:19:05.871Z,99709.25
2023-03-06T20:21:51.935Z,99713.06
2023-03-06T20:24:38.972Z,99713.31
2023-03-06T20:27:24.767Z,99713.53
2023-03-06T20:30:11.069Z,99713.97
2023-03-06T20:32:56.816Z,99719.44
2023-03-06T20:35:43.011Z,99722.78
2023-03-06T20:38:29.127Z,99721.81
2023-03-06T20:41:16.416Z,99719.13
2023-03-06T20:44:03.410Z,99722.66
2023-03-06T20:46:51.852Z,99727.88
2023-03-06T20:49:37.625Z,99734.69
2023-03-06T20:52:24.028Z,99733.75
2023-03-06T20:55:10.133Z,99742.31
2023-03-06T20:57:57.451Z,99743.25
2023-03-06T21:00:43.366Z,99749.19
2023-03-06T21:03:29.621Z,99747.06
2023-03-06T21:06:15.316Z,99749.22
2023-03-06T21:09:01.266Z,99750.69
2023-03-06T21:11:47.253Z,99753.78
2023-03-06T21:14:34.482Z,99756.88
2023-03-06T21:17:20.281Z,99753.94
2023-03-06T21:20:06.818Z,99754.28
2023-03-06T21:22:52.864Z,99754.66
2023-03-06T21:25:43.792Z,99746.47
2023-03-06T21:28:29.728Z,99746.84
2023-03-06T21:31:17.666Z,99730.06
2023-03-06T21:34:05.212Z,99733.38
2023-03-06T21:36:52.163Z,99726.13
2023-03-06T21:39:38.508Z,99724.94
2023-03-06T21:42:24.515Z,99729.94
2023-03-06T21:45:10.728Z,99741.97
2023-03-06T21:47:58.073Z,99741.00
2023-03-06T21:50:44.039Z,99743.50
2023-03-06T21:53:30.318Z,99749.22
2023-03-06T21:56:17.330Z,99748.38
2023-03-06T21:59:03.873Z,99757.78
2023-03-06T22:01:49.807Z,99761.25
2023-03-06T22:04:37.402Z,99763.66
2023-03-06T22:07:23.779Z,99773.28
2023-03-06T22:10:12.009Z,99768.88
2023-03-06T22:12:58.579Z,99775.06
2023-03-06T22:15:51.184Z,99776.00
2023-03-06T22:18:37.108Z,99779.34
2023-03-06T22:21:24.727Z,99782.81
2023-03-06T22:24:10.813Z,99781.97
2023-03-06T22:26:56.434Z,99781.84
2023-03-06T22:29:42.361Z,99775.66
2023-03-06T22:32:28.145Z,99767.94
2023-03-06T22:35:14.398Z,99761.03
2023-03-06T22:38:03.143Z,99766.72
2023-03-06T22:40:49.065Z,99764.00
2023-03-06T22:43:35.140Z,99756.97
2023-03-06T22:46:20.902Z,99755.78
2023-03-06T22:49:07.049Z,99754.81
2023-03-06T22:51:52.903Z,99746.81
2023-03-06T22:54:40.033Z,99748.28
2023-03-06T22:57:25.721Z,99749.13
2023-03-06T23:00:12.236Z,99732.91
2023-03-06T23:02:58.332Z,99730.75
2023-03-06T23:05:44.778Z,99721.59
2023-03-06T23:08:30.619Z,99718.84
2023-03-06T23:11:19.382Z,99708.34
2023-03-06T23:14:24.296Z,99699.28
2023-03-06T23:17:28.948Z,99690.22
2023-03-06T23:20:33.620Z,99675.19
2023-03-06T23:23:38.822Z,99666.38
2023-03-06T23:26:27.710Z,99651.47
2023-03-06T23:29:13.506Z,99646.09
2023-03-06T23:31:59.227Z,99641.56
2023-03-06T23:34:45.128Z,99635.63
2023-03-06T23:37:30.896Z,99615.34
2023-03-06T23:40:16.975Z,99602.97
2023-03-06T23:43:04.571Z,99589.63
2023-03-06T23:45:54.443Z,99586.41
2023-03-06T23:48:40.755Z,99570.44
2023-03-06T23:51:26.781Z,99548.75
2023-03-06T23:54:12.595Z,99552.34
2023-03-06T23:56:58.433Z,99541.84
2023-03-06T23:59:45.641Z,99539.25
